sensor_id;sensor_type;location;lat;lon;timestamp;pressure;altitude;pressure_sealevel;temperature;humidity
62779;BME280;48821;48.796;2.396;2024-02-26T00:01:04;98677.78;;;11.07;73.82
62779;BME280;48821;48.796;2.396;2024-02-26T00:02:18;98675.03;;;11.09;73.70
62779;BME280;48821;48.796;2.396;2024-02-26T00:03:31;98685.56;;;11.09;73.68
62779;BME280;48821;48.796;2.396;2024-02-26T00:04:43;98687.25;;;11.10;73.71
62779;BME280;48821;48.796;2.396;2024-02-26T00:05:54;98690.81;;;11.09;73.89
62779;BME280;48821;48.796;2.396;2024-02-26T00:07:09;98688.97;;;11.11;73.79
62779;BME280;48821;48.796;2.396;2024-02-26T00:08:22;98688.97;;;11.11;73.87
62779;BME280;48821;48.796;2.396;2024-02-26T00:09:33;98693.25;;;11.12;73.99
62779;BME280;48821;48.796;2.396;2024-02-26T00:10:46;98691.47;;;11.12;74.04
62779;BME280;48821;48.796;2.396;2024-02-26T00:11:57;98683.69;;;11.11;73.97
62779;BME280;48821;48.796;2.396;2024-02-26T00:13:12;98689.69;;;11.13;73.76
62779;BME280;48821;48.796;2.396;2024-02-26T00:14:23;98692.19;;;11.14;73.91
62779;BME280;48821;48.796;2.396;2024-02-26T00:15:33;98691.25;;;11.16;73.73
62779;BME280;48821;48.796;2.396;2024-02-26T00:16:45;98694.81;;;11.14;73.95
62779;BME280;48821;48.796;2.396;2024-02-26T00:17:56;98697.34;;;11.16;73.86
62779;BME280;48821;48.796;2.396;2024-02-26T00:19:10;98693.97;;;11.14;73.83
62779;BME280;48821;48.796;2.396;2024-02-26T00:20:20;98697.34;;;11.16;73.94
62779;BME280;48821;48.796;2.396;2024-02-26T00:21:32;98692.19;;;11.14;74.05
62779;BME280;48821;48.796;2.396;2024-02-26T00:22:42;98698.31;;;11.15;74.07
62779;BME280;48821;48.796;2.396;2024-02-26T00:23:53;98699.88;;;11.18;73.81
62779;BME280;48821;48.796;2.396;2024-02-26T00:25:04;98696.53;;;11.16;73.91
62779;BME280;48821;48.796;2.396;2024-02-26T00:26:15;98697.34;;;11.16;74.04
62779;BME280;48821;48.796;2.396;2024-02-26T00:27:26;98699.78;;;11.19;73.77
62779;BME280;48821;48.796;2.396;2024-02-26T00:28:37;98699.03;;;11.17;74.00
62779;BME280;48821;48.796;2.396;2024-02-26T00:29:50;98697.06;;;11.21;74.08
62779;BME280;48821;48.796;2.396;2024-02-26T00:31:03;98686.81;;;11.16;74.00
62779;BME280;48821;48.796;2.396;2024-02-26T00:32:17;98699.78;;;11.19;74.29
62779;BME280;48821;48.796;2.396;2024-02-26T00:33:30;98701.56;;;11.19;73.97
62779;BME280;48821;48.796;2.396;2024-02-26T00:34:43;98698.09;;;11.18;74.17
62779;BME280;48821;48.796;2.396;2024-02-26T00:35:57;98695.34;;;11.20;73.86
62779;BME280;48821;48.796;2.396;2024-02-26T00:37:10;98694.44;;;11.21;73.94
62779;BME280;48821;48.796;2.396;2024-02-26T00:38:20;98703.25;;;11.20;73.98
62779;BME280;48821;48.796;2.396;2024-02-26T00:39:31;98692.72;;;11.20;73.86
62779;BME280;48821;48.796;2.396;2024-02-26T00:40:42;98693.56;;;11.20;74.06
62779;BME280;48821;48.796;2.396;2024-02-26T00:41:53;98702.41;;;11.19;73.82
62779;BME280;48821;48.796;2.396;2024-02-26T00:43:09;98692.72;;;11.20;73.75
62779;BME280;48821;48.796;2.396;2024-02-26T00:44:19;98698.09;;;11.18;73.98
62779;BME280;48821;48.796;2.396;2024-02-26T00:45:31;98698.00;;;11.20;73.84
62779;BME280;48821;48.796;2.396;2024-02-26T00:46:45;98704.09;;;11.20;74.12
62779;BME280;48821;48.796;2.396;2024-02-26T00:47:58;98705.03;;;11.19;73.82
62779;BME280;48821;48.796;2.396;2024-02-26T00:49:14;98711.03;;;11.21;74.10
62779;BME280;48821;48.796;2.396;2024-02-26T00:50:27;98706.72;;;11.20;73.79
62779;BME280;48821;48.796;2.396;2024-02-26T00:51:40;98713.56;;;11.23;74.19
62779;BME280;48821;48.796;2.396;2024-02-26T00:52:53;98703.25;;;11.20;74.12
62779;BME280;48821;48.796;2.396;2024-02-26T00:54:07;98711.13;;;11.20;74.18
62779;BME280;48821;48.796;2.396;2024-02-26T00:55:20;98709.44;;;11.19;74.16
62779;BME280;48821;48.796;2.396;2024-02-26T00:56:30;98715.47;;;11.21;74.03
62779;BME280;48821;48.796;2.396;2024-02-26T00:57:41;98724.09;;;11.23;73.75
62779;BME280;48821;48.796;2.396;2024-02-26T00:58:55;98716.41;;;11.20;74.19
62779;BME280;48821;48.796;2.396;2024-02-26T01:00:08;98721.44;;;11.23;74.17
62779;BME280;48821;48.796;2.396;2024-02-26T01:01:21;98721.53;;;11.21;74.25
62779;BME280;48821;48.796;2.396;2024-02-26T01:02:35;98722.19;;;11.25;74.26
62779;BME280;48821;48.796;2.396;2024-02-26T01:03:48;98719.66;;;11.23;74.36
62779;BME280;48821;48.796;2.396;2024-02-26T01:05:01;98713.66;;;11.21;74.24
62779;BME280;48821;48.796;2.396;2024-02-26T01:06:15;98722.06;;;11.27;74.34
62779;BME280;48821;48.796;2.396;2024-02-26T01:07:28;98719.44;;;11.27;74.34
62779;BME280;48821;48.796;2.396;2024-02-26T01:08:41;98719.56;;;11.25;74.10
62779;BME280;48821;48.796;2.396;2024-02-26T01:09:55;98718.72;;;11.24;74.26
62779;BME280;48821;48.796;2.396;2024-02-26T01:11:08;98718.72;;;11.24;74.12
62779;BME280;48821;48.796;2.396;2024-02-26T01:12:21;98724.81;;;11.25;74.69
62779;BME280;48821;48.796;2.396;2024-02-26T01:13:34;98723.03;;;11.25;74.25
62779;BME280;48821;48.796;2.396;2024-02-26T01:14:47;98726.28;;;11.29;74.34
62779;BME280;48821;48.796;2.396;2024-02-26T01:16:00;98724.50;;;11.30;74.21
62779;BME280;48821;48.796;2.396;2024-02-26T01:17:14;98729.88;;;11.28;74.46
62779;BME280;48821;48.796;2.396;2024-02-26T01:18:27;98726.41;;;11.28;74.34
62779;BME280;48821;48.796;2.396;2024-02-26T01:19:41;98724.63;;;11.28;74.55
62779;BME280;48821;48.796;2.396;2024-02-26T01:20:54;98731.22;;;11.34;74.64
62779;BME280;48821;48.796;2.396;2024-02-26T01:22:07;98729.75;;;11.30;74.33
62779;BME280;48821;48.796;2.396;2024-02-26T01:23:20;98733.13;;;11.32;74.26
62779;BME280;48821;48.796;2.396;2024-02-26T01:24:34;98735.00;;;11.30;74.39
62779;BME280;48821;48.796;2.396;2024-02-26T01:25:47;98736.47;;;11.34;74.35
62779;BME280;48821;48.796;2.396;2024-02-26T01:26:58;98742.47;;;11.36;74.64
62779;BME280;48821;48.796;2.396;2024-02-26T01:28:09;98732.06;;;11.34;74.36
62779;BME280;48821;48.796;2.396;2024-02-26T01:29:22;98735.44;;;11.36;74.62
62779;BME280;48821;48.796;2.396;2024-02-26T01:30:36;98731.94;;;11.36;74.39
62779;BME280;48821;48.796;2.396;2024-02-26T01:31:49;98739.63;;;11.39;74.43
62779;BME280;48821;48.796;2.396;2024-02-26T01:33:02;98732.81;;;11.36;74.41
62779;BME280;48821;48.796;2.396;2024-02-26T01:34:16;98734.50;;;11.38;74.40
62779;BME280;48821;48.796;2.396;2024-02-26T01:35:31;98740.50;;;11.40;74.54
62779;BME280;48821;48.796;2.396;2024-02-26T01:36:44;98736.16;;;11.39;74.65
62779;BME280;48821;48.796;2.396;2024-02-26T01:37:57;98740.38;;;11.41;74.79
62779;BME280;48821;48.796;2.396;2024-02-26T01:39:11;98743.00;;;11.41;74.71
62779;BME280;48821;48.796;2.396;2024-02-26T01:40:28;98744.69;;;11.42;74.44
62779;BME280;48821;48.796;2.396;2024-02-26T01:41:40;98748.91;;;11.45;74.66
62779;BME280;48821;48.796;2.396;2024-02-26T01:42:53;98744.69;;;11.42;74.43
62779;BME280;48821;48.796;2.396;2024-02-26T01:44:04;98741.22;;;11.42;74.52
62779;BME280;48821;48.796;2.396;2024-02-26T01:45:17;98741.09;;;11.43;74.59
62779;BME280;48821;48.796;2.396;2024-02-26T01:46:36;98741.09;;;11.43;74.54
62779;BME280;48821;48.796;2.396;2024-02-26T01:47:49;98736.69;;;11.44;74.64
62779;BME280;48821;48.796;2.396;2024-02-26T01:49:01;98742.59;;;11.47;74.43
62779;BME280;48821;48.796;2.396;2024-02-26T01:50:12;98748.91;;;11.45;74.45
62779;BME280;48821;48.796;2.396;2024-02-26T01:51:24;98752.28;;;11.47;74.55
62779;BME280;48821;48.796;2.396;2024-02-26T01:52:37;98747.13;;;11.45;74.76
62779;BME280;48821;48.796;2.396;2024-02-26T01:53:51;98747.13;;;11.45;74.48
62779;BME280;48821;48.796;2.396;2024-02-26T01:55:02;98747.13;;;11.45;74.46
62779;BME280;48821;48.796;2.396;2024-02-26T01:56:14;98755.63;;;11.49;74.50
62779;BME280;48821;48.796;2.396;2024-02-26T01:57:30;98749.75;;;11.45;74.53
62779;BME280;48821;48.796;2.396;2024-02-26T01:58:41;98755.63;;;11.49;74.67
62779;BME280;48821;48.796;2.396;2024-02-26T01:59:55;98750.50;;;11.47;74.54
62779;BME280;48821;48.796;2.396;2024-02-26T02:01:09;98759.97;;;11.50;74.65
62779;BME280;48821;48.796;2.396;2024-02-26T02:02:22;98758.38;;;11.47;74.70
62779;BME280;48821;48.796;2.396;2024-02-26T02:03:36;98753.97;;;11.48;74.63
62779;BME280;48821;48.796;2.396;2024-02-26T02:04:49;98749.53;;;11.48;74.61
62779;BME280;48821;48.796;2.396;2024-02-26T02:06:03;98760.81;;;11.51;74.54
62779;BME280;48821;48.796;2.396;2024-02-26T02:07:14;98758.25;;;11.49;74.76
62779;BME280;48821;48.796;2.396;2024-02-26T02:08:25;98763.44;;;11.51;74.45
62779;BME280;48821;48.796;2.396;2024-02-26T02:09:40;98761.53;;;11.53;74.76
62779;BME280;48821;48.796;2.396;2024-02-26T02:10:53;98754.59;;;11.52;74.58
62779;BME280;48821;48.796;2.396;2024-02-26T02:12:07;98764.06;;;11.54;74.48
62779;BME280;48821;48.796;2.396;2024-02-26T02:13:20;98757.22;;;11.52;74.34
62779;BME280;48821;48.796;2.396;2024-02-26T02:14:33;98764.06;;;11.54;74.64
62779;BME280;48821;48.796;2.396;2024-02-26T02:15:43;98760.69;;;11.52;74.58
62779;BME280;48821;48.796;2.396;2024-02-26T02:16:54;98759.72;;;11.53;74.71
62779;BME280;48821;48.796;2.396;2024-02-26T02:18:06;98766.69;;;11.54;74.70
62779;BME280;48821;48.796;2.396;2024-02-26T02:19:20;98762.34;;;11.53;74.65
62779;BME280;48821;48.796;2.396;2024-02-26T02:20:33;98766.56;;;11.56;74.62
62779;BME280;48821;48.796;2.396;2024-02-26T02:21:47;98769.31;;;11.54;74.39
62779;BME280;48821;48.796;2.396;2024-02-26T02:23:00;98772.69;;;11.56;74.56
62779;BME280;48821;48.796;2.396;2024-02-26T02:24:13;98768.47;;;11.54;74.53
62779;BME280;48821;48.796;2.396;2024-02-26T02:25:27;98770.16;;;11.55;74.60
62779;BME280;48821;48.796;2.396;2024-02-26T02:26:40;98768.47;;;11.54;74.85
62779;BME280;48821;48.796;2.396;2024-02-26T02:27:54;98777.09;;;11.56;74.52
62779;BME280;48821;48.796;2.396;2024-02-26T02:29:08;98779.63;;;11.57;74.67
62779;BME280;48821;48.796;2.396;2024-02-26T02:30:26;98773.53;;;11.57;74.56
62779;BME280;48821;48.796;2.396;2024-02-26T02:31:41;98767.53;;;11.55;74.48
62779;BME280;48821;48.796;2.396;2024-02-26T02:32:55;98776.28;;;11.55;74.40
62779;BME280;48821;48.796;2.396;2024-02-26T02:34:06;98777.09;;;11.56;74.58
62779;BME280;48821;48.796;2.396;2024-02-26T02:35:20;98784.06;;;11.57;75.07
62779;BME280;48821;48.796;2.396;2024-02-26T02:36:33;98782.34;;;11.56;74.69
62779;BME280;48821;48.796;2.396;2024-02-26T02:37:44;98777.94;;;11.56;74.33
62779;BME280;48821;48.796;2.396;2024-02-26T02:38:55;98777.09;;;11.56;74.50
62779;BME280;48821;48.796;2.396;2024-02-26T02:40:08;98775.44;;;11.55;74.83
62779;BME280;48821;48.796;2.396;2024-02-26T02:41:21;98777.84;;;11.58;74.54
62779;BME280;48821;48.796;2.396;2024-02-26T02:42:35;98779.84;;;11.54;74.69
62779;BME280;48821;48.796;2.396;2024-02-26T02:43:48;98784.06;;;11.57;74.75
62779;BME280;48821;48.796;2.396;2024-02-26T02:45:01;98779.72;;;11.56;74.72
62779;BME280;48821;48.796;2.396;2024-02-26T02:46:14;98779.72;;;11.56;74.56
62779;BME280;48821;48.796;2.396;2024-02-26T02:47:27;98773.66;;;11.55;74.78
62779;BME280;48821;48.796;2.396;2024-02-26T02:48:44;98774.47;;;11.56;74.61
62779;BME280;48821;48.796;2.396;2024-02-26T02:49:57;98786.56;;;11.58;74.77
62779;BME280;48821;48.796;2.396;2024-02-26T02:51:10;98777.09;;;11.56;74.47
62779;BME280;48821;48.796;2.396;2024-02-26T02:52:23;98777.09;;;11.56;74.53
62779;BME280;48821;48.796;2.396;2024-02-26T02:53:37;98778.78;;;11.57;74.61
62779;BME280;48821;48.796;2.396;2024-02-26T02:54:50;98780.56;;;11.56;74.57
62779;BME280;48821;48.796;2.396;2024-02-26T02:56:03;98791.00;;;11.58;74.65
62779;BME280;48821;48.796;2.396;2024-02-26T02:57:17;98780.69;;;11.55;74.56
62779;BME280;48821;48.796;2.396;2024-02-26T02:58:30;98790.03;;;11.59;74.41
62779;BME280;48821;48.796;2.396;2024-02-26T02:59:40;98787.63;;;11.56;74.47
62779;BME280;48821;48.796;2.396;2024-02-26T03:00:51;98791.00;;;11.58;74.31
62779;BME280;48821;48.796;2.396;2024-02-26T03:02:04;98780.69;;;11.55;74.47
62779;BME280;48821;48.796;2.396;2024-02-26T03:03:18;98796.28;;;11.58;74.48
62779;BME280;48821;48.796;2.396;2024-02-26T03:04:31;98785.09;;;11.54;74.49
62779;BME280;48821;48.796;2.396;2024-02-26T03:05:44;98789.44;;;11.55;74.94
62779;BME280;48821;48.796;2.396;2024-02-26T03:06:57;98788.59;;;11.55;74.95
62779;BME280;48821;48.796;2.396;2024-02-26T03:08:11;98792.25;;;11.52;74.47
62779;BME280;48821;48.796;2.396;2024-02-26T03:09:24;98793.84;;;11.55;74.50
62779;BME280;48821;48.796;2.396;2024-02-26T03:10:37;98802.66;;;11.54;74.56
62779;BME280;48821;48.796;2.396;2024-02-26T03:11:50;98791.41;;;11.52;74.44
62779;BME280;48821;48.796;2.396;2024-02-26T03:13:04;98793.19;;;11.51;74.64
62779;BME280;48821;48.796;2.396;2024-02-26T03:14:17;98789.75;;;11.51;74.39
62779;BME280;48821;48.796;2.396;2024-02-26T03:15:30;98801.94;;;11.52;74.72
62779;BME280;48821;48.796;2.396;2024-02-26T03:16:43;98798.38;;;11.53;74.33
62779;BME280;48821;48.796;2.396;2024-02-26T03:17:54;98793.13;;;11.53;74.60
62779;BME280;48821;48.796;2.396;2024-02-26T03:19:05;98793.94;;;11.53;74.73
62779;BME280;48821;48.796;2.396;2024-02-26T03:20:18;98792.25;;;11.52;74.66
62779;BME280;48821;48.796;2.396;2024-02-26T03:21:32;98802.59;;;11.55;74.70
62779;BME280;48821;48.796;2.396;2024-02-26T03:22:45;98804.44;;;11.53;74.35
62779;BME280;48821;48.796;2.396;2024-02-26T03:23:58;98799.31;;;11.52;74.43
62779;BME280;48821;48.796;2.396;2024-02-26T03:25:12;98795.75;;;11.53;74.52
62779;BME280;48821;48.796;2.396;2024-02-26T03:26:25;98801.09;;;11.51;74.60
62779;BME280;48821;48.796;2.396;2024-02-26T03:27:38;98804.56;;;11.52;74.62
62779;BME280;48821;48.796;2.396;2024-02-26T03:28:51;98802.91;;;11.51;74.61
62779;BME280;48821;48.796;2.396;2024-02-26T03:30:02;98805.53;;;11.51;74.50
62779;BME280;48821;48.796;2.396;2024-02-26T03:31:16;98814.97;;;11.53;74.44
62779;BME280;48821;48.796;2.396;2024-02-26T03:32:27;98801.22;;;11.50;74.40
62779;BME280;48821;48.796;2.396;2024-02-26T03:33:38;98809.09;;;11.50;74.48
62779;BME280;48821;48.796;2.396;2024-02-26T03:34:51;98816.13;;;11.49;74.29
62779;BME280;48821;48.796;2.396;2024-02-26T03:36:07;98802.25;;;11.47;74.25
62779;BME280;48821;48.796;2.396;2024-02-26T03:37:20;98813.44;;;11.51;74.50
62779;BME280;48821;48.796;2.396;2024-02-26T03:38:33;98805.81;;;11.46;74.35
62779;BME280;48821;48.796;2.396;2024-02-26T03:39:47;98812.66;;;11.48;74.58
62779;BME280;48821;48.796;2.396;2024-02-26T03:41:00;98815.53;;;11.45;74.63
62779;BME280;48821;48.796;2.396;2024-02-26T03:42:10;98816.25;;;11.47;74.23
62779;BME280;48821;48.796;2.396;2024-02-26T03:43:21;98817.31;;;11.45;74.53
62779;BME280;48821;48.796;2.396;2024-02-26T03:44:35;98811.19;;;11.44;74.27
62779;BME280;48821;48.796;2.396;2024-02-26T03:45:48;98813.81;;;11.44;74.54
62779;BME280;48821;48.796;2.396;2024-02-26T03:47:01;98811.41;;;11.41;74.34
62779;BME280;48821;48.796;2.396;2024-02-26T03:48:14;98815.72;;;11.42;74.75
62779;BME280;48821;48.796;2.396;2024-02-26T03:49:27;98818.34;;;11.42;74.46
62779;BME280;48821;48.796;2.396;2024-02-26T03:50:40;98815.00;;;11.40;74.37
62779;BME280;48821;48.796;2.396;2024-02-26T03:51:54;98823.63;;;11.42;74.42
62779;BME280;48821;48.796;2.396;2024-02-26T03:53:07;98830.53;;;11.43;74.29
62779;BME280;48821;48.796;2.396;2024-02-26T03:54:22;98831.38;;;11.44;74.32
62779;BME280;48821;48.796;2.396;2024-02-26T03:55:35;98826.25;;;11.42;74.60
62779;BME280;48821;48.796;2.396;2024-02-26T03:56:48;98831.38;;;11.44;74.58
62779;BME280;48821;48.796;2.396;2024-02-26T03:57:58;98835.00;;;11.43;74.48
62779;BME280;48821;48.796;2.396;2024-02-26T03:59:11;98832.56;;;11.40;74.37
62779;BME280;48821;48.796;2.396;2024-02-26T04:00:25;98843.63;;;11.45;74.61
62779;BME280;48821;48.796;2.396;2024-02-26T04:01:39;98844.66;;;11.42;74.52
62779;BME280;48821;48.796;2.396;2024-02-26T04:02:52;98848.97;;;11.43;74.63
62779;BME280;48821;48.796;2.396;2024-02-26T04:04:06;98851.59;;;11.43;74.47
62779;BME280;48821;48.796;2.396;2024-02-26T04:05:19;98853.47;;;11.41;74.45
62779;BME280;48821;48.796;2.396;2024-02-26T04:06:32;98854.13;;;11.45;74.50
62779;BME280;48821;48.796;2.396;2024-02-26T04:07:45;98858.53;;;11.44;74.49
62779;BME280;48821;48.796;2.396;2024-02-26T04:08:59;98855.91;;;11.44;74.56
62779;BME280;48821;48.796;2.396;2024-02-26T04:10:12;98853.41;;;11.43;74.57
62779;BME280;48821;48.796;2.396;2024-02-26T04:11:25;98855.91;;;11.44;74.70
62779;BME280;48821;48.796;2.396;2024-02-26T04:12:39;98855.19;;;11.42;74.78
62779;BME280;48821;48.796;2.396;2024-02-26T04:13:56;98856.03;;;11.43;74.61
62779;BME280;48821;48.796;2.396;2024-02-26T04:15:10;98857.63;;;11.45;74.53
62779;BME280;48821;48.796;2.396;2024-02-26T04:16:23;98859.59;;;11.42;74.62
62779;BME280;48821;48.796;2.396;2024-02-26T04:17:37;98860.25;;;11.45;74.55
62779;BME280;48821;48.796;2.396;2024-02-26T04:18:51;98859.47;;;11.43;74.59
62779;BME280;48821;48.796;2.396;2024-02-26T04:20:06;98862.88;;;11.45;74.44
62779;BME280;48821;48.796;2.396;2024-02-26T04:21:20;98861.06;;;11.46;74.65
62779;BME280;48821;48.796;2.396;2024-02-26T04:22:33;98862.88;;;11.45;74.52
62779;BME280;48821;48.796;2.396;2024-02-26T04:23:46;98855.19;;;11.42;74.50
62779;BME280;48821;48.796;2.396;2024-02-26T04:24:59;98868.88;;;11.47;74.68
62779;BME280;48821;48.796;2.396;2024-02-26T04:26:13;98856.03;;;11.43;74.62
62779;BME280;48821;48.796;2.396;2024-02-26T04:27:26;98867.28;;;11.45;74.50
62779;BME280;48821;48.796;2.396;2024-02-26T04:28:39;98861.28;;;11.43;74.47
62779;BME280;48821;48.796;2.396;2024-02-26T04:29:52;98862.09;;;11.43;74.59
62779;BME280;48821;48.796;2.396;2024-02-26T04:31:05;98869.81;;;11.46;74.51
62779;BME280;48821;48.796;2.396;2024-02-26T04:32:19;98868.22;;;11.44;74.60
62779;BME280;48821;48.796;2.396;2024-02-26T04:33:34;98876.97;;;11.44;74.48
62779;BME280;48821;48.796;2.396;2024-02-26T04:34:47;98876.03;;;11.45;74.39
62779;BME280;48821;48.796;2.396;2024-02-26T04:36:00;98875.06;;;11.46;74.64
62779;BME280;48821;48.796;2.396;2024-02-26T04:37:13;98873.47;;;11.44;74.52
62779;BME280;48821;48.796;2.396;2024-02-26T04:38:26;98881.91;;;11.49;74.46
62779;BME280;48821;48.796;2.396;2024-02-26T04:39:40;98882.03;;;11.47;74.63
62779;BME280;48821;48.796;2.396;2024-02-26T04:40:53;98883.81;;;11.47;74.49
62779;BME280;48821;48.796;2.396;2024-02-26T04:42:04;98879.41;;;11.47;74.54
62779;BME280;48821;48.796;2.396;2024-02-26T04:43:16;98876.13;;;11.44;74.46
62779;BME280;48821;48.796;2.396;2024-02-26T04:44:31;98882.97;;;11.46;74.67
62779;BME280;48821;48.796;2.396;2024-02-26T04:45:44;98877.88;;;11.43;74.42
62779;BME280;48821;48.796;2.396;2024-02-26T04:46:57;98886.63;;;11.44;74.51
62779;BME280;48821;48.796;2.396;2024-02-26T04:48:10;98877.88;;;11.43;74.30
62779;BME280;48821;48.796;2.396;2024-02-26T04:49:23;98884.97;;;11.43;74.39
62779;BME280;48821;48.796;2.396;2024-02-26T04:50:37;98884.13;;;11.42;74.36
62779;BME280;48821;48.796;2.396;2024-02-26T04:51:50;98889.38;;;11.42;74.49
62779;BME280;48821;48.796;2.396;2024-02-26T04:53:03;98887.69;;;11.41;74.53
62779;BME280;48821;48.796;2.396;2024-02-26T04:54:16;98890.31;;;11.41;74.50
62779;BME280;48821;48.796;2.396;2024-02-26T04:55:30;98892.84;;;11.43;74.49
62779;BME280;48821;48.796;2.396;2024-02-26T04:56:43;98899.16;;;11.40;74.60
62779;BME280;48821;48.796;2.396;2024-02-26T04:57:57;98899.91;;;11.42;74.51
62779;BME280;48821;48.796;2.396;2024-02-26T04:59:10;98892.19;;;11.39;74.34
62779;BME280;48821;48.796;2.396;2024-02-26T05:00:23;98901.06;;;11.38;74.43
62779;BME280;48821;48.796;2.396;2024-02-26T05:01:36;98901.06;;;11.38;74.49
62779;BME280;48821;48.796;2.396;2024-02-26T05:02:50;98899.34;;;11.37;74.39
62779;BME280;48821;48.796;2.396;2024-02-26T05:04:03;98901.88;;;11.39;74.38
62779;BME280;48821;48.796;2.396;2024-02-26T05:05:16;98900.22;;;11.38;74.37
62779;BME280;48821;48.796;2.396;2024-02-26T05:06:29;98905.47;;;11.38;74.47
62779;BME280;48821;48.796;2.396;2024-02-26T05:07:43;98902.00;;;11.37;74.29
62779;BME280;48821;48.796;2.396;2024-02-26T05:08:56;98907.38;;;11.35;74.32
62779;BME280;48821;48.796;2.396;2024-02-26T05:10:09;98911.59;;;11.38;74.11
62779;BME280;48821;48.796;2.396;2024-02-26T05:11:23;98907.44;;;11.34;74.46
62779;BME280;48821;48.796;2.396;2024-02-26T05:12:36;98917.88;;;11.35;74.43
62779;BME280;48821;48.796;2.396;2024-02-26T05:13:50;98918.69;;;11.36;74.47
62779;BME280;48821;48.796;2.396;2024-02-26T05:15:03;98918.69;;;11.36;74.50
62779;BME280;48821;48.796;2.396;2024-02-26T05:16:16;98920.59;;;11.34;74.50
62779;BME280;48821;48.796;2.396;2024-02-26T05:17:30;98923.97;;;11.36;74.21
62779;BME280;48821;48.796;2.396;2024-02-26T05:18:43;98924.19;;;11.33;74.17
62779;BME280;48821;48.796;2.396;2024-02-26T05:19:56;98927.56;;;11.35;74.17
62779;BME280;48821;48.796;2.396;2024-02-26T05:21:09;98928.59;;;11.32;74.35
62779;BME280;48821;48.796;2.396;2024-02-26T05:22:23;98926.91;;;11.31;74.31
62779;BME280;48821;48.796;2.396;2024-02-26T05:23:36;98940.78;;;11.33;74.24
62779;BME280;48821;48.796;2.396;2024-02-26T05:24:47;98940.78;;;11.33;74.22
62779;BME280;48821;48.796;2.396;2024-02-26T05:25:58;98933.00;;;11.32;74.23
62779;BME280;48821;48.796;2.396;2024-02-26T05:27:11;98936.59;;;11.31;74.07
62779;BME280;48821;48.796;2.396;2024-02-26T05:28:22;98940.03;;;11.31;74.29
62779;BME280;48821;48.796;2.396;2024-02-26T05:29:33;98939.31;;;11.29;74.17
62779;BME280;48821;48.796;2.396;2024-02-26T05:30:46;98935.00;;;11.28;74.22
62779;BME280;48821;48.796;2.396;2024-02-26T05:31:59;98939.41;;;11.28;74.14
62779;BME280;48821;48.796;2.396;2024-02-26T05:33:13;98935.09;;;11.27;74.06
62779;BME280;48821;48.796;2.396;2024-02-26T05:34:26;98940.34;;;11.27;74.24
62779;BME280;48821;48.796;2.396;2024-02-26T05:35:39;98942.97;;;11.27;74.25
62779;BME280;48821;48.796;2.396;2024-02-26T05:36:53;98948.16;;;11.28;73.98
62779;BME280;48821;48.796;2.396;2024-02-26T05:38:06;98957.16;;;11.24;74.27
62779;BME280;48821;48.796;2.396;2024-02-26T05:39:19;98949.19;;;11.25;74.34
62779;BME280;48821;48.796;2.396;2024-02-26T05:40:33;98949.19;;;11.25;74.14
62779;BME280;48821;48.796;2.396;2024-02-26T05:41:46;98958.03;;;11.24;74.30
62779;BME280;48821;48.796;2.396;2024-02-26T05:42:59;98957.16;;;11.24;74.27
62779;BME280;48821;48.796;2.396;2024-02-26T05:44:12;98965.91;;;11.24;74.25
62779;BME280;48821;48.796;2.396;2024-02-26T05:45:25;98956.34;;;11.23;74.18
62779;BME280;48821;48.796;2.396;2024-02-26T05:46:39;98964.25;;;11.23;74.18
62779;BME280;48821;48.796;2.396;2024-02-26T05:47:52;98958.97;;;11.23;74.04
62779;BME280;48821;48.796;2.396;2024-02-26T05:49:05;98961.69;;;11.22;74.21
62779;BME280;48821;48.796;2.396;2024-02-26T05:50:17;98960.84;;;11.21;74.16
62779;BME280;48821;48.796;2.396;2024-02-26T05:51:28;98968.53;;;11.24;74.01
62779;BME280;48821;48.796;2.396;2024-02-26T05:52:39;98960.03;;;11.21;74.20
62779;BME280;48821;48.796;2.396;2024-02-26T05:53:52;98969.56;;;11.22;74.26
62779;BME280;48821;48.796;2.396;2024-02-26T05:55:09;98972.94;;;11.24;74.13
62779;BME280;48821;48.796;2.396;2024-02-26T05:56:22;98974.84;;;11.22;74.19
62779;BME280;48821;48.796;2.396;2024-02-26T05:57:36;98976.72;;;11.20;74.15
62779;BME280;48821;48.796;2.396;2024-02-26T05:58:49;98969.69;;;11.20;74.12
62779;BME280;48821;48.796;2.396;2024-02-26T06:00:03;98973.16;;;11.21;74.10
62779;BME280;48821;48.796;2.396;2024-02-26T06:01:17;98977.56;;;11.20;74.32
62779;BME280;48821;48.796;2.396;2024-02-26T06:02:30;98977.56;;;11.20;74.38
62779;BME280;48821;48.796;2.396;2024-02-26T06:03:44;98984.50;;;11.21;74.15
62779;BME280;48821;48.796;2.396;2024-02-26T06:04:57;98986.22;;;11.22;74.19
62779;BME280;48821;48.796;2.396;2024-02-26T06:06:11;98978.44;;;11.21;74.05
62779;BME280;48821;48.796;2.396;2024-02-26T06:07:24;98985.28;;;11.23;74.39
62779;BME280;48821;48.796;2.396;2024-02-26T06:08:37;98986.31;;;11.21;74.13
62779;BME280;48821;48.796;2.396;2024-02-26T06:09:51;98993.06;;;11.25;74.46
62779;BME280;48821;48.796;2.396;2024-02-26T06:11:07;98996.72;;;11.22;74.20
62779;BME280;48821;48.796;2.396;2024-02-26T06:12:18;98987.91;;;11.23;74.38
62779;BME280;48821;48.796;2.396;2024-02-26T06:13:29;98990.63;;;11.22;74.32
62779;BME280;48821;48.796;2.396;2024-02-26T06:14:44;98996.72;;;11.22;74.47
62779;BME280;48821;48.796;2.396;2024-02-26T06:15:54;98991.47;;;11.22;74.23
62779;BME280;48821;48.796;2.396;2024-02-26T06:17:05;99003.69;;;11.23;74.45
62779;BME280;48821;48.796;2.396;2024-02-26T06:18:20;99002.63;;;11.26;74.23
62779;BME280;48821;48.796;2.396;2024-02-26T06:19:30;99003.69;;;11.23;74.29
62779;BME280;48821;48.796;2.396;2024-02-26T06:20:41;99003.59;;;11.25;74.27
62779;BME280;48821;48.796;2.396;2024-02-26T06:21:54;99007.25;;;11.22;74.23
62779;BME280;48821;48.796;2.396;2024-02-26T06:23:08;99007.25;;;11.22;74.17
62779;BME280;48821;48.796;2.396;2024-02-26T06:24:21;99013.13;;;11.26;74.21
62779;BME280;48821;48.796;2.396;2024-02-26T06:25:32;99009.88;;;11.22;74.47
62779;BME280;48821;48.796;2.396;2024-02-26T06:26:43;99012.31;;;11.25;74.38